sensor_id;sensor_type;location;lat;lon;timestamp;pressure;altitude;pressure_sealevel;temperature;humidity
37892;BME280;45797;47.466;9.486;2023-10-31T00:04:31;94516.06;;;11.25;81.72
37892;BME280;45797;47.466;9.486;2023-10-31T00:09:50;94517.19;;;11.22;81.23
37892;BME280;45797;47.466;9.486;2023-10-31T00:14:53;94524.91;;;11.24;81.35
37892;BME280;45797;47.466;9.486;2023-10-31T00:19:53;94529.16;;;11.25;81.24
37892;BME280;45797;47.466;9.486;2023-10-31T00:25:01;94547.00;;;11.21;81.45
37892;BME280;45797;47.466;9.486;2023-10-31T00:30:07;94559.28;;;11.21;81.13
37892;BME280;45797;47.466;9.486;2023-10-31T00:35:08;94560.09;;;11.21;81.04
37892;BME280;45797;47.466;9.486;2023-10-31T00:40:14;94562.06;;;11.19;81.27
37892;BME280;45797;47.466;9.486;2023-10-31T00:45:17;94567.28;;;11.19;81.57
37892;BME280;45797;47.466;9.486;2023-10-31T00:50:19;94592.53;;;11.20;81.54
37892;BME280;45797;47.466;9.486;2023-10-31T00:55:22;94584.50;;;11.22;81.51
37892;BME280;45797;47.466;9.486;2023-10-31T01:00:28;94599.41;;;11.21;81.45
37892;BME280;45797;47.466;9.486;2023-10-31T01:05:45;94609.91;;;11.21;81.73
37892;BME280;45797;47.466;9.486;2023-10-31T01:10:53;94609.91;;;11.21;81.63
37892;BME280;45797;47.466;9.486;2023-10-31T01:15:58;94609.06;;;11.21;81.88
37892;BME280;45797;47.466;9.486;2023-10-31T01:21:00;94623.16;;;11.20;81.57
37892;BME280;45797;47.466;9.486;2023-10-31T01:26:10;94636.41;;;11.18;81.94
37892;BME280;45797;47.466;9.486;2023-10-31T01:31:11;94624.94;;;11.19;81.71
37892;BME280;45797;47.466;9.486;2023-10-31T01:36:11;94629.91;;;11.22;81.84
37892;BME280;45797;47.466;9.486;2023-10-31T01:41:13;94629.22;;;11.20;81.63
37892;BME280;45797;47.466;9.486;2023-10-31T01:46:16;94638.16;;;11.18;81.79
37892;BME280;45797;47.466;9.486;2023-10-31T01:51:21;94643.28;;;11.19;81.84
37892;BME280;45797;47.466;9.486;2023-10-31T01:56:25;94647.72;;;11.19;81.73
37892;BME280;45797;47.466;9.486;2023-10-31T02:01:27;94645.22;;;11.17;82.03
37892;BME280;45797;47.466;9.486;2023-10-31T02:06:42;94652.41;;;11.15;82.04
37892;BME280;45797;47.466;9.486;2023-10-31T02:11:44;94658.47;;;11.15;81.90
37892;BME280;45797;47.466;9.486;2023-10-31T02:16:44;94647.97;;;11.15;81.42
37892;BME280;45797;47.466;9.486;2023-10-31T02:21:49;94637.78;;;11.12;82.05
37892;BME280;45797;47.466;9.486;2023-10-31T02:26:51;94643.31;;;11.09;82.00
37892;BME280;45797;47.466;9.486;2023-10-31T02:31:55;94641.13;;;11.05;82.22
37892;BME280;45797;47.466;9.486;2023-10-31T02:36:56;94646.78;;;11.00;82.42
37892;BME280;45797;47.466;9.486;2023-10-31T02:41:57;94639.50;;;10.94;82.37
37892;BME280;45797;47.466;9.486;2023-10-31T02:46:59;94639.91;;;10.90;82.33
37892;BME280;45797;47.466;9.486;2023-10-31T02:52:03;94656.88;;;10.85;82.23
37892;BME280;45797;47.466;9.486;2023-10-31T02:57:05;94658.25;;;10.80;82.55
37892;BME280;45797;47.466;9.486;2023-10-31T03:02:14;94663.94;;;10.75;82.29
37892;BME280;45797;47.466;9.486;2023-10-31T03:07:20;94661.97;;;10.77;82.61
37892;BME280;45797;47.466;9.486;2023-10-31T03:12:24;94658.25;;;10.80;82.63
37892;BME280;45797;47.466;9.486;2023-10-31T03:17:25;94660.88;;;10.80;82.45
37892;BME280;45797;47.466;9.486;2023-10-31T03:22:26;94660.03;;;10.79;82.50
37892;BME280;45797;47.466;9.486;2023-10-31T03:27:40;94659.38;;;10.77;82.27
37892;BME280;45797;47.466;9.486;2023-10-31T03:32:41;94670.66;;;10.78;82.44
37892;BME280;45797;47.466;9.486;2023-10-31T03:37:51;94666.25;;;10.78;82.43
37892;BME280;45797;47.466;9.486;2023-10-31T03:42:52;94675.09;;;10.77;82.36
37892;BME280;45797;47.466;9.486;2023-10-31T03:48:01;94688.31;;;10.76;82.42
37892;BME280;45797;47.466;9.486;2023-10-31T03:53:03;94694.38;;;10.76;82.45
37892;BME280;45797;47.466;9.486;2023-10-31T03:58:07;94699.75;;;10.75;81.99
37892;BME280;45797;47.466;9.486;2023-10-31T04:03:10;94707.63;;;10.75;82.22
37892;BME280;45797;47.466;9.486;2023-10-31T04:08:10;94707.63;;;10.75;82.21
37892;BME280;45797;47.466;9.486;2023-10-31T04:13:11;94722.50;;;10.74;82.21
37892;BME280;45797;47.466;9.486;2023-10-31T04:18:12;94726.09;;;10.73;82.28
37892;BME280;45797;47.466;9.486;2023-10-31T04:23:14;94736.56;;;10.73;82.18
37892;BME280;45797;47.466;9.486;2023-10-31T04:28:23;94739.19;;;10.73;82.02
37892;BME280;45797;47.466;9.486;2023-10-31T04:33:24;94733.00;;;10.74;81.54
37892;BME280;45797;47.466;9.486;2023-10-31T04:38:40;94741.13;;;10.71;81.70
37892;BME280;45797;47.466;9.486;2023-10-31T04:43:42;94757.53;;;10.73;82.02
37892;BME280;45797;47.466;9.486;2023-10-31T04:48:44;94760.41;;;10.70;81.76
37892;BME280;45797;47.466;9.486;2023-10-31T04:54:01;94763.31;;;10.67;81.51
37892;BME280;45797;47.466;9.486;2023-10-31T04:59:01;94755.44;;;10.67;81.35
37892;BME280;45797;47.466;9.486;2023-10-31T05:04:06;94772.13;;;10.66;81.51
37892;BME280;45797;47.466;9.486;2023-10-31T05:09:13;94770.19;;;10.68;81.74
37892;BME280;45797;47.466;9.486;2023-10-31T05:14:16;94771.84;;;10.69;81.21
37892;BME280;45797;47.466;9.486;2023-10-31T05:19:23;94787.84;;;10.66;81.22
37892;BME280;45797;47.466;9.486;2023-10-31T05:24:24;94788.13;;;10.63;81.39
37892;BME280;45797;47.466;9.486;2023-10-31T05:29:26;94793.50;;;10.62;81.30
37892;BME280;45797;47.466;9.486;2023-10-31T05:34:26;94797.19;;;10.59;81.20
37892;BME280;45797;47.466;9.486;2023-10-31T05:39:27;94797.19;;;10.59;81.47
37892;BME280;45797;47.466;9.486;2023-10-31T05:44:34;94796.66;;;10.55;81.18
37892;BME280;45797;47.466;9.486;2023-10-31T05:49:35;94793.19;;;10.55;80.95
37892;BME280;45797;47.466;9.486;2023-10-31T05:54:36;94796.09;;;10.52;81.34
37892;BME280;45797;47.466;9.486;2023-10-31T05:59:37;94800.22;;;10.54;81.59
37892;BME280;45797;47.466;9.486;2023-10-31T06:04:38;94803.00;;;10.53;81.55
37892;BME280;45797;47.466;9.486;2023-10-31T06:09:39;94820.50;;;10.52;81.31
37892;BME280;45797;47.466;9.486;2023-10-31T06:14:42;94823.94;;;10.53;81.54
37892;BME280;45797;47.466;9.486;2023-10-31T06:19:44;94832.47;;;10.55;81.34
37892;BME280;45797;47.466;9.486;2023-10-31T06:24:48;94826.97;;;10.58;81.71
37892;BME280;45797;47.466;9.486;2023-10-31T06:29:48;94833.84;;;10.59;81.17
37892;BME280;45797;47.466;9.486;2023-10-31T06:34:49;94846.69;;;10.62;80.84
37892;BME280;45797;47.466;9.486;2023-10-31T06:39:49;94852.47;;;10.66;81.23
37892;BME280;45797;47.466;9.486;2023-10-31T06:44:51;94860.19;;;10.67;80.80
37892;BME280;45797;47.466;9.486;2023-10-31T06:49:52;94862.53;;;10.70;80.91
37892;BME280;45797;47.466;9.486;2023-10-31T06:54:53;94872.75;;;10.73;81.05
37892;BME280;45797;47.466;9.486;2023-10-31T07:00:04;94874.97;;;10.78;80.70
37892;BME280;45797;47.466;9.486;2023-10-31T07:05:07;94879.81;;;10.82;81.03
37892;BME280;45797;47.466;9.486;2023-10-31T07:10:25;94881.19;;;10.86;80.54
37892;BME280;45797;47.466;9.486;2023-10-31T07:15:31;94884.38;;;10.90;80.46
37892;BME280;45797;47.466;9.486;2023-10-31T07:20:51;94897.88;;;10.95;80.37
37892;BME280;45797;47.466;9.486;2023-10-31T07:25:52;94889.63;;;11.00;80.13
37892;BME280;45797;47.466;9.486;2023-10-31T07:31:06;94890.19;;;11.03;80.36
37892;BME280;45797;47.466;9.486;2023-10-31T07:36:07;94895.00;;;11.08;80.12
37892;BME280;45797;47.466;9.486;2023-10-31T07:41:07;94897.38;;;11.11;80.50
37892;BME280;45797;47.466;9.486;2023-10-31T07:46:16;94890.75;;;11.16;79.90
37892;BME280;45797;47.466;9.486;2023-10-31T07:51:16;94898.06;;;11.23;79.49
37892;BME280;45797;47.466;9.486;2023-10-31T07:56:18;94902.06;;;11.27;79.35
37892;BME280;45797;47.466;9.486;2023-10-31T08:01:23;94906.22;;;11.29;79.30
37892;BME280;45797;47.466;9.486;2023-10-31T08:06:24;94901.53;;;11.33;79.08
37892;BME280;45797;47.466;9.486;2023-10-31T08:11:32;94913.66;;;11.34;79.14
37892;BME280;45797;47.466;9.486;2023-10-31T08:16:36;94926.63;;;11.35;79.11
37892;BME280;45797;47.466;9.486;2023-10-31T08:21:37;94929.09;;;11.37;79.09
37892;BME280;45797;47.466;9.486;2023-10-31T08:26:48;94935.47;;;11.44;78.71
37892;BME280;45797;47.466;9.486;2023-10-31T08:31:49;94926.53;;;11.56;78.94
37892;BME280;45797;47.466;9.486;2023-10-31T08:36:51;94932.84;;;11.73;78.70
37892;BME280;45797;47.466;9.486;2023-10-31T08:42:03;94934.41;;;11.85;78.34
37892;BME280;45797;47.466;9.486;2023-10-31T08:47:04;94927.34;;;11.95;78.20
37892;BME280;45797;47.466;9.486;2023-10-31T08:52:05;94937.81;;;12.05;78.07
37892;BME280;45797;47.466;9.486;2023-10-31T08:57:10;94928.13;;;12.15;77.77
37892;BME280;45797;47.466;9.486;2023-10-31T09:02:12;94938.47;;;12.26;77.75
37892;BME280;45797;47.466;9.486;2023-10-31T09:07:14;94939.69;;;12.42;77.36
37892;BME280;45797;47.466;9.486;2023-10-31T09:12:24;94939.19;;;12.56;77.07
37892;BME280;45797;47.466;9.486;2023-10-31T09:17:35;94945.25;;;12.66;76.79
37892;BME280;45797;47.466;9.486;2023-10-31T09:22:45;94938.28;;;12.75;76.41
37892;BME280;45797;47.466;9.486;2023-10-31T09:27:55;94934.94;;;12.82;76.00
37892;BME280;45797;47.466;9.486;2023-10-31T09:32:56;94947.78;;;12.85;76.00
37892;BME280;45797;47.466;9.486;2023-10-31T09:37:56;94949.59;;;12.85;76.50
37892;BME280;45797;47.466;9.486;2023-10-31T09:42:58;94949.44;;;12.86;75.85
37892;BME280;45797;47.466;9.486;2023-10-31T09:48:00;94951.91;;;12.88;75.95
37892;BME280;45797;47.466;9.486;2023-10-31T09:53:11;94986.09;;;12.88;76.07
37892;BME280;45797;47.466;9.486;2023-10-31T09:58:15;94961.19;;;12.92;75.50
37892;BME280;45797;47.466;9.486;2023-10-31T10:03:29;94965.25;;;13.04;75.38
37892;BME280;45797;47.466;9.486;2023-10-31T10:08:29;94959.69;;;13.07;74.78
37892;BME280;45797;47.466;9.486;2023-10-31T10:13:32;94975.25;;;13.01;75.33
37892;BME280;45797;47.466;9.486;2023-10-31T10:18:49;94966.09;;;13.05;75.32
37892;BME280;45797;47.466;9.486;2023-10-31T10:23:57;94963.53;;;13.23;74.46
37892;BME280;45797;47.466;9.486;2023-10-31T10:28:58;94967.34;;;13.38;74.06
37892;BME280;45797;47.466;9.486;2023-10-31T10:34:01;94970.25;;;13.53;74.05
37892;BME280;45797;47.466;9.486;2023-10-31T10:39:02;94971.03;;;13.63;73.51
37892;BME280;45797;47.466;9.486;2023-10-31T10:44:05;94980.06;;;13.78;73.29
37892;BME280;45797;47.466;9.486;2023-10-31T10:49:07;94985.25;;;13.88;72.84
37892;BME280;45797;47.466;9.486;2023-10-31T10:54:26;94981.03;;;13.95;73.19
37892;BME280;45797;47.466;9.486;2023-10-31T10:59:40;94981.97;;;14.12;72.53
37892;BME280;45797;47.466;9.486;2023-10-31T11:04:43;94986.88;;;14.24;72.03
37892;BME280;45797;47.466;9.486;2023-10-31T11:09:45;94978.31;;;14.22;71.95
37892;BME280;45797;47.466;9.486;2023-10-31T11:14:48;94974.84;;;14.22;72.58
37892;BME280;45797;47.466;9.486;2023-10-31T11:19:55;94983.34;;;14.16;72.28
37892;BME280;45797;47.466;9.486;2023-10-31T11:24:59;94978.00;;;14.08;72.67
37892;BME280;45797;47.466;9.486;2023-10-31T11:30:00;94995.38;;;14.18;71.93
37892;BME280;45797;47.466;9.486;2023-10-31T11:35:02;94992.31;;;14.23;71.68
37892;BME280;45797;47.466;9.486;2023-10-31T11:50:41;95001.84;;;14.42;71.10
37892;BME280;45797;47.466;9.486;2023-10-31T11:55:46;95008.94;;;14.23;71.29
37892;BME280;45797;47.466;9.486;2023-10-31T12:01:09;95012.75;;;14.11;71.66
37892;BME280;45797;47.466;9.486;2023-10-31T12:06:10;95020.00;;;14.09;71.30
37892;BME280;45797;47.466;9.486;2023-10-31T12:11:21;95020.91;;;14.00;71.99
37892;BME280;45797;47.466;9.486;2023-10-31T12:16:37;95025.81;;;13.95;72.32
37892;BME280;45797;47.466;9.486;2023-10-31T12:21:46;95023.31;;;13.93;72.08
37892;BME280;45797;47.466;9.486;2023-10-31T12:26:48;95025.09;;;14.11;71.97
37892;BME280;45797;47.466;9.486;2023-10-31T12:31:57;95026.75;;;14.29;71.47
37892;BME280;45797;47.466;9.486;2023-10-31T12:37:05;95017.09;;;14.38;71.11
37892;BME280;45797;47.466;9.486;2023-10-31T12:42:07;95025.94;;;14.47;71.45
37892;BME280;45797;47.466;9.486;2023-10-31T12:47:21;95026.47;;;14.50;71.00
37892;BME280;45797;47.466;9.486;2023-10-31T12:52:22;95023.72;;;14.42;70.91
37892;BME280;45797;47.466;9.486;2023-10-31T12:57:24;95022.84;;;14.34;71.77
37892;BME280;45797;47.466;9.486;2023-10-31T13:02:44;95020.97;;;14.26;71.81
37892;BME280;45797;47.466;9.486;2023-10-31T13:07:52;95016.84;;;14.23;71.90
37892;BME280;45797;47.466;9.486;2023-10-31T13:12:55;95031.41;;;14.36;71.40
37892;BME280;45797;47.466;9.486;2023-10-31T13:18:03;95029.84;;;14.43;71.14
37892;BME280;45797;47.466;9.486;2023-10-31T13:23:04;95030.97;;;14.40;71.72
37892;BME280;45797;47.466;9.486;2023-10-31T13:28:04;95040.63;;;14.32;71.59
37892;BME280;45797;47.466;9.486;2023-10-31T13:33:16;95047.06;;;14.19;71.99
37892;BME280;45797;47.466;9.486;2023-10-31T13:38:16;95045.66;;;14.07;72.13
37892;BME280;45797;47.466;9.486;2023-10-31T13:43:19;95045.88;;;13.96;72.59
37892;BME280;45797;47.466;9.486;2023-10-31T13:48:20;95050.09;;;13.89;72.43
37892;BME280;45797;47.466;9.486;2023-10-31T13:53:20;95058.28;;;13.86;72.70
37892;BME280;45797;47.466;9.486;2023-10-31T13:58:21;95068.28;;;13.82;72.90
37892;BME280;45797;47.466;9.486;2023-10-31T14:03:27;95070.38;;;13.79;72.97
37892;BME280;45797;47.466;9.486;2023-10-31T14:08:28;95081.66;;;13.71;73.04
37892;BME280;45797;47.466;9.486;2023-10-31T14:13:45;95084.94;;;13.73;72.64
37892;BME280;45797;47.466;9.486;2023-10-31T14:18:53;95090.66;;;13.68;72.61
37892;BME280;45797;47.466;9.486;2023-10-31T14:23:54;95092.31;;;13.69;73.43
37892;BME280;45797;47.466;9.486;2023-10-31T14:28:56;95100.00;;;13.81;72.99
37892;BME280;45797;47.466;9.486;2023-10-31T14:34:01;95110.28;;;14.01;72.34
37892;BME280;45797;47.466;9.486;2023-10-31T14:39:08;95104.13;;;14.28;71.66
37892;BME280;45797;47.466;9.486;2023-10-31T14:44:09;95114.06;;;14.35;71.35
37892;BME280;45797;47.466;9.486;2023-10-31T14:49:11;95122.28;;;14.32;71.48
37892;BME280;45797;47.466;9.486;2023-10-31T14:54:11;95117.28;;;14.11;72.08
37892;BME280;45797;47.466;9.486;2023-10-31T14:59:21;95125.63;;;14.06;71.76
37892;BME280;45797;47.466;9.486;2023-10-31T15:04:22;95130.13;;;13.96;71.98
37892;BME280;45797;47.466;9.486;2023-10-31T15:09:22;95141.16;;;13.82;72.41
37892;BME280;45797;47.466;9.486;2023-10-31T15:14:22;95150.94;;;13.62;72.60
37892;BME280;45797;47.466;9.486;2023-10-31T15:19:23;95162.78;;;13.48;73.16
37892;BME280;45797;47.466;9.486;2023-10-31T15:24:26;95162.25;;;13.35;73.55
37892;BME280;45797;47.466;9.486;2023-10-31T15:29:35;95171.97;;;13.25;73.35
37892;BME280;45797;47.466;9.486;2023-10-31T15:34:36;95175.44;;;13.15;73.78
37892;BME280;45797;47.466;9.486;2023-10-31T15:39:48;95179.34;;;13.02;73.22
37892;BME280;45797;47.466;9.486;2023-10-31T15:44:50;95181.00;;;12.93;73.58
37892;BME280;45797;47.466;9.486;2023-10-31T15:49:52;95189.72;;;12.84;73.51
37892;BME280;45797;47.466;9.486;2023-10-31T15:54:56;95199.97;;;12.77;73.80
37892;BME280;45797;47.466;9.486;2023-10-31T16:00:06;95208.56;;;12.70;73.72
37892;BME280;45797;47.466;9.486;2023-10-31T16:05:13;95209.78;;;12.66;74.15
37892;BME280;45797;47.466;9.486;2023-10-31T16:10:13;95228.47;;;12.63;73.72
37892;BME280;45797;47.466;9.486;2023-10-31T16:15:20;95227.06;;;12.58;73.90
37892;BME280;45797;47.466;9.486;2023-10-31T16:20:20;95238.69;;;12.56;73.97
37892;BME280;45797;47.466;9.486;2023-10-31T16:25:32;95242.66;;;12.50;74.22
37892;BME280;45797;47.466;9.486;2023-10-31T16:30:37;95277.09;;;12.47;73.95
37892;BME280;45797;47.466;9.486;2023-10-31T16:35:39;95261.91;;;12.41;74.11
37892;BME280;45797;47.466;9.486;2023-10-31T16:40:44;95277.22;;;12.36;74.50
37892;BME280;45797;47.466;9.486;2023-10-31T16:45:54;95282.84;;;12.32;74.30
37892;BME280;45797;47.466;9.486;2023-10-31T16:50:56;95299.56;;;12.30;74.16
37892;BME280;45797;47.466;9.486;2023-10-31T16:55:59;95311.88;;;12.30;74.32
37892;BME280;45797;47.466;9.486;2023-10-31T17:01:03;95319.75;;;12.30;74.10
37892;BME280;45797;47.466;9.486;2023-10-31T17:06:05;95322.38;;;12.30;74.18
37892;BME280;45797;47.466;9.486;2023-10-31T17:11:07;95325.28;;;12.27;74.26
37892;BME280;45797;47.466;9.486;2023-10-31T17:16:10;95334.81;;;12.28;74.35
37892;BME280;45797;47.466;9.486;2023-10-31T17:21:10;95346.16;;;12.28;73.90
37892;BME280;45797;47.466;9.486;2023-10-31T17:26:14;95377.38;;;12.32;74.38
37892;BME280;45797;47.466;9.486;2023-10-31T17:31:17;95391.94;;;12.36;73.99
37892;BME280;45797;47.466;9.486;2023-10-31T17:36:20;95427.28;;;12.32;73.78
37892;BME280;45797;47.466;9.486;2023-10-31T17:41:23;95416.75;;;12.01;74.93
37892;BME280;45797;47.466;9.486;2023-10-31T17:46:24;95428.19;;;11.79;75.39
37892;BME280;45797;47.466;9.486;2023-10-31T17:51:27;95452.69;;;11.68;76.20
37892;BME280;45797;47.466;9.486;2023-10-31T17:56:31;95452.59;;;11.59;76.36
37892;BME280;45797;47.466;9.486;2023-10-31T18:01:36;95456.69;;;11.52;76.48
37892;BME280;45797;47.466;9.486;2023-10-31T18:06:46;95452.44;;;11.39;76.95
37892;BME280;45797;47.466;9.486;2023-10-31T18:11:46;95467.00;;;11.32;77.11
37892;BME280;45797;47.466;9.486;2023-10-31T18:16:53;95476.78;;;11.30;77.01
37892;BME280;45797;47.466;9.486;2023-10-31T18:21:57;95482.38;;;11.26;77.14
37892;BME280;45797;47.466;9.486;2023-10-31T18:27:00;95500.16;;;11.22;77.37
37892;BME280;45797;47.466;9.486;2023-10-31T18:32:01;95491.56;;;11.20;77.59
37892;BME280;45797;47.466;9.486;2023-10-31T18:37:15;95490.25;;;11.14;77.27
37892;BME280;45797;47.466;9.486;2023-10-31T18:42:24;95504.22;;;11.04;77.79
37892;BME280;45797;47.466;9.486;2023-10-31T18:47:26;95500.88;;;11.02;77.46
37892;BME280;45797;47.466;9.486;2023-10-31T18:52:26;95490.03;;;10.95;77.89
37892;BME280;45797;47.466;9.486;2023-10-31T18:57:31;95495.88;;;10.87;78.17
37892;BME280;45797;47.466;9.486;2023-10-31T19:02:31;95493.75;;;10.81;78.10
37892;BME280;45797;47.466;9.486;2023-10-31T19:07:39;95506.13;;;10.79;78.55
37892;BME280;45797;47.466;9.486;2023-10-31T19:12:45;95497.69;;;10.76;78.22
37892;BME280;45797;47.466;9.486;2023-10-31T19:17:46;95490.66;;;10.76;78.57
37892;BME280;45797;47.466;9.486;2023-10-31T19:22:58;95502.78;;;10.77;78.30
37892;BME280;45797;47.466;9.486;2023-10-31T19:28:02;95522.66;;;10.80;78.38
37892;BME280;45797;47.466;9.486;2023-10-31T19:33:11;95523.28;;;10.83;78.32
37892;BME280;45797;47.466;9.486;2023-10-31T19:38:21;95519.72;;;10.84;78.31
37892;BME280;45797;47.466;9.486;2023-10-31T19:43:32;95526.38;;;10.88;78.18
37892;BME280;45797;47.466;9.486;2023-10-31T19:48:35;95525.06;;;10.94;78.38
37892;BME280;45797;47.466;9.486;2023-10-31T19:53:52;95528.75;;;10.92;78.07
37892;BME280;45797;47.466;9.486;2023-10-31T19:58:55;95534.47;;;10.97;78.02
37892;BME280;45797;47.466;9.486;2023-10-31T20:03:58;95530.91;;;11.09;78.01
37892;BME280;45797;47.466;9.486;2023-10-31T20:09:18;95522.31;;;11.18;77.19
37892;BME280;45797;47.466;9.486;2023-10-31T20:14:19;95532.91;;;11.28;77.31
37892;BME280;45797;47.466;9.486;2023-10-31T20:19:21;95531.47;;;11.35;77.17
37892;BME280;45797;47.466;9.486;2023-10-31T20:24:26;95524.69;;;11.32;77.07
37892;BME280;45797;47.466;9.486;2023-10-31T20:29:26;95530.50;;;11.25;77.90
37892;BME280;45797;47.466;9.486;2023-10-31T20:34:29;95513.72;;;11.16;77.81
37892;BME280;45797;47.466;9.486;2023-10-31T20:39:29;95510.88;;;11.08;77.86
37892;BME280;45797;47.466;9.486;2023-10-31T20:44:31;95519.94;;;11.04;77.99
37892;BME280;45797;47.466;9.486;2023-10-31T20:49:33;95514.22;;;10.99;78.08
37892;BME280;45797;47.466;9.486;2023-10-31T20:54:40;95512.22;;;10.91;78.10
37892;BME280;45797;47.466;9.486;2023-10-31T20:59:45;95513.50;;;10.85;78.16
37892;BME280;45797;47.466;9.486;2023-10-31T21:04:45;95511.25;;;10.81;78.20
37892;BME280;45797;47.466;9.486;2023-10-31T21:09:49;95511.47;;;10.78;78.49
37892;BME280;45797;47.466;9.486;2023-10-31T21:15:05;95510.06;;;10.74;78.41
37892;BME280;45797;47.466;9.486;2023-10-31T21:20:10;95520.66;;;10.72;78.54
37892;BME280;45797;47.466;9.486;2023-10-31T21:25:13;95520.88;;;10.69;78.84
37892;BME280;45797;47.466;9.486;2023-10-31T21:30:16;95532.56;;;10.65;78.67
37892;BME280;45797;47.466;9.486;2023-10-31T21:35:17;95526.72;;;10.62;78.92
37892;BME280;45797;47.466;9.486;2023-10-31T21:40:18;95522.53;;;10.59;78.79
37892;BME280;45797;47.466;9.486;2023-10-31T21:45:34;95520.41;;;10.53;78.78
37892;BME280;45797;47.466;9.486;2023-10-31T21:50:34;95511.81;;;10.51;78.57
37892;BME280;45797;47.466;9.486;2023-10-31T21:55:42;95509.19;;;10.51;78.76
37892;BME280;45797;47.466;9.486;2023-10-31T22:00:52;95515.38;;;10.50;79.04
37892;BME280;45797;47.466;9.486;2023-10-31T22:06:00;95525.03;;;10.49;78.78
37892;BME280;45797;47.466;9.486;2023-10-31T22:11:01;95524.44;;;10.46;79.03
37892;BME280;45797;47.466;9.486;2023-10-31T22:16:02;95524.56;;;10.44;78.70
37892;BME280;45797;47.466;9.486;2023-10-31T22:21:03;95528.34;;;10.40;78.88
37892;BME280;45797;47.466;9.486;2023-10-31T22:26:09;95531.19;;;10.37;78.89
37892;BME280;45797;47.466;9.486;2023-10-31T22:31:17;95540.25;;;10.33;79.01
37892;BME280;45797;47.466;9.486;2023-10-31T22:36:33;95534.38;;;10.29;78.88
37892;BME280;45797;47.466;9.486;2023-10-31T22:41:35;95523.91;;;10.29;79.03
37892;BME280;45797;47.466;9.486;2023-10-31T22:46:36;95514.41;;;10.28;78.93
37892;BME280;45797;47.466;9.486;2023-10-31T22:51:39;95515.34;;;10.27;78.99
37892;BME280;45797;47.466;9.486;2023-10-31T22:56:44;95512.88;;;10.26;79.09
37892;BME280;45797;47.466;9.486;2023-10-31T23:01:49;95517.25;;;10.25;78.90
37892;BME280;45797;47.466;9.486;2023-10-31T23:06:51;95511.78;;;10.28;79.46
37892;BME280;45797;47.466;9.486;2023-10-31T23:11:54;95508.22;;;10.29;78.92
37892;BME280;45797;47.466;9.486;2023-10-31T23:16:55;95497.75;;;10.29;78.87
37892;BME280;45797;47.466;9.486;2023-10-31T23:21:56;95495.75;;;10.33;78.87
37892;BME280;45797;47.466;9.486;2023-10-31T23:26:59;95486.13;;;10.34;79.00
37892;BME280;45797;47.466;9.486;2023-10-31T23:32:17;95491.56;;;10.30;78.58
37892;BME280;45797;47.466;9.486;2023-10-31T23:37:19;95486.31;;;10.30;78.42
37892;BME280;45797;47.466;9.486;2023-10-31T23:42:19;95488.94;;;10.30;79.06
37892;BME280;45797;47.466;9.486;2023-10-31T23:47:29;95484.06;;;10.26;78.91
37892;BME280;45797;47.466;9.486;2023-10-31T23:52:35;95484.06;;;10.26;78.54
37892;BME280;45797;47.466;9.486;2023-10-31T23:57:35;95484.19;;;10.24;78.42
